Pulaski, Iowa
Current Conditions -  °F | °C
As of 2:15 PM on Friday 31 Oct 2014 (Local Time) from KFFL Reporting Station
Clear Clear  
Wind Chill: 34°   Ceiling: Unl
Heat Index: 43°   Visibility: NA
Dew Point: 19°   Wind: 20mph
Humidity: 39%   Direction: 330°NNW
Pressure: 30.4"   Gusts: NA
Location:  40.7°N, 92.27°W
Report Text: KFFL 311915Z AUTO 33017KT CLR 06/M07 A3040 RMK AO2
Loading
Personal Weather Stations






























Interactive Weather Map
Tropical Storm Tracking
New forecast layout! Learn more

10-Day Weather Forecast

Advertisements
Track Severe Weather on mobile